Nearby METAR Reports

 

KCMA - Camarillo, California, USA
Distance from station: WSW 4mi, 7km
Updated: Sun, 29-Mar-2020 11:55am PDT
Few Clouds
Few Clouds
 Wind from SSW
Wind: SSW 9 mph , 15 km/h
Temperature: 64°F , 18°C
Dew Point: 46°F , 8°C
Humidity: 52%
Barometer: 30.12 inHg , 1020 hPa
Clouds: Few Clouds
Visibility: 10 miles , 16 km
Cloud details: Few Clouds 2400 ft
2020/03/29 18:55 KCMA 291855Z 21008KT 10SM FEW024 18/08 A3012 RMK AO2 SLP207 T01780083
KNTD - Point Mugu Nas, California, USA
Distance from station: SSW 9mi, 15km
Updated: Sun, 29-Mar-2020 11:52am PDT
Few Clouds
Few Clouds
 Wind from W
Wind: W 7 mph , 11 km/h
Temperature: 61°F , 16°C
Dew Point: 48°F , 9°C
Humidity: 63%
Barometer: 30.14 inHg , 1020.7 hPa
Clouds: Few Clouds
Visibility: 8 miles , 13 km
Cloud details: Few Clouds 2000 ft
Few Clouds 25000 ft
2020/03/29 18:52 KNTD 291852Z 26006KT 8SM FEW020 FEW250 16/09 A3014 RMK AO2 SLP207 T01610094 $
 
KOXR - Oxnard, California, USA
Distance from station: WSW 10mi, 16km
Updated: Sun, 29-Mar-2020 11:51am PDT
Few Clouds
Few Clouds
 Wind from W
Wind: W 8 mph , 13 km/h
Temperature: 61°F , 16°C
Dew Point: 46°F , 8°C
Humidity: 59%
Barometer: 30.12 inHg , 1020 hPa
Clouds: Few Clouds
Visibility: 10 miles , 16 km
Cloud details: Few Clouds 3500 ft
2020/03/29 18:51 KOXR 291851Z 27007KT 10SM FEW035 16/08 A3012 RMK AO2 SLP200 T01560078
KVNY - Van Nuys, California, USA
Distance from station: E 31mi, 50km
Updated: Sun, 29-Mar-2020 11:51am PDT
Few Clouds
Few Clouds
 Wind from SE
Wind: SE 6 mph , 9 km/h
Temperature: 63°F , 17°C
Dew Point: 45°F , 7°C
Humidity: 52%
Barometer: 30.10 inHg , 1019.3 hPa
Clouds: Few Clouds
Visibility: 10 miles , 16 km
Cloud details: Few Clouds 4000 ft
2020/03/29 18:51 KVNY 291851Z 13005KT 10SM FEW040 17/07 A3010 RMK AO2 SLP187 T01720072
 
KWHP - La / Whiteman, California, USA
Distance from station: E 35mi, 56km
Updated: Sun, 29-Mar-2020 10:55am PDT
Clear
Clear
 Wind from SW
Wind: SW 5 mph , 7 km/h
Temperature: 57°F , 14°C
Dew Point: 41°F , 5°C
Humidity: 55%
Barometer: 30.15 inHg , 1021 hPa
Clouds: Clear
Visibility: 10 miles , 16 km
2020/03/29 17:55 KWHP 291755Z 22004KT 10SM SKC 14/05 A3015
KSMO - Santa Monica, California, USA
Distance from station: ESE 36mi, 58km
Updated: Sun, 29-Mar-2020 11:51am PDT
Clear
Clear
 Wind from SSW
Wind: SSW 10 mph , 17 km/h
Temperature: 63°F , 17°C
Dew Point: 45°F , 7°C
Humidity: 52%
Barometer: 30.12 inHg , 1020 hPa
Clouds: Clear
Visibility: 10 miles , 16 km
2020/03/29 18:51 KSMO 291851Z 21009KT 10SM CLR 17/07 A3012 RMK AO2 SLP198 T01670072
 
KBUR - Burbank, California, USA
Distance from station: E 38mi, 61km
Updated: Sun, 29-Mar-2020 11:53am PDT
Few Clouds
Few Clouds
 Wind from varies
Wind: varies 5 mph , 7 km/h
Temperature: 61°F , 16°C
Dew Point: 43°F , 6°C
Humidity: 52%
Barometer: 30.10 inHg , 1019.3 hPa
Clouds: Few Clouds
Visibility: 10 miles , 16 km
Cloud details: Few Clouds 4100 ft
2020/03/29 18:53 KBUR 291853Z VRB04KT 10SM FEW041 16/06 A3010 RMK AO2 SLP185 T01610056 $
KSDB - Sandberg, California, USA
Distance from station: NNE 40mi, 64km
Updated: Sun, 29-Mar-2020 11:53am PDT
Overcast
Overcast
 Wind from N
Wind: N 7 mph , 11 km/h, Gust: 20 mph , 31 km/h
Temperature: 45°F , 7°C
Wind Chill: 41°F , 5°C
Dew Point: 39°F , 4°C
Humidity: 81%
Barometer: 30.11 inHg , 1019.6 hPa
Clouds: Overcast
Visibility: 10 miles , 16 km
Cloud details: Overcast 200 ft
2020/03/29 18:53 KSDB 291853Z AUTO 35006G17KT 10SM OVC002 07/04 A3011 RMK AO2 SLP182 T00720039 $
 
KLAX - Los Angeles, California, USA
Distance from station: ESE 42mi, 68km
Updated: Sun, 29-Mar-2020 11:53am PDT
Partly cloudy
Partly cloudy
 Wind from W
Wind: W 8 mph , 13 km/h
Temperature: 64°F , 18°C
Dew Point: 48°F , 9°C
Humidity: 56%
Barometer: 30.12 inHg , 1020 hPa
Clouds: Partly cloudy
Visibility: 10 miles , 16 km
Cloud details: Partly cloudy 3100 ft
2020/03/29 18:53 KLAX 291853Z 26007KT 10SM SCT031 18/09 A3012 RMK AO2 SLP198 T01780089 $
KCQT - Los Angeles, California, USA
Distance from station: ESE 45mi, 73km
Updated: Sun, 29-Mar-2020 11:52am PDT
Clear
Clear
 Wind from varies
Wind: varies 3 mph , 6 km/h
Temperature: 66°F , 19°C
Dew Point: 45°F , 7°C
Humidity: 46%
Barometer: 30.11 inHg , 1019.6 hPa
Clouds: Clear
Visibility: 10 miles , 16 km
2020/03/29 18:52 KCQT 291852Z AUTO VRB03KT 10SM CLR 19/07 A3011 RMK AO2 SLP193 T01890072
 
KHHR - Hawthorne, California, USA
Distance from station: ESE 45mi, 73km
Updated: Sun, 29-Mar-2020 11:53am PDT
Mostly cloudy
Mostly cloudy
 Wind from varies
Wind: varies 7 mph , 11 km/h
Temperature: 63°F , 17°C
Dew Point: 46°F , 8°C
Humidity: 56%
Barometer: 30.12 inHg , 1020 hPa
Clouds: Mostly cloudy
Visibility: 10 miles , 16 km
Cloud details: Mostly cloudy 3600 ft
2020/03/29 18:53 KHHR 291853Z VRB06KT 10SM BKN036 17/08 A3012 RMK AO2 SLP200 T01720078
KSBA - Santa Barbara, California, USA
Distance from station: WNW 49mi, 79km
Updated: Sun, 29-Mar-2020 11:53am PDT
Clear
Clear
 Wind from W
Wind: W 16 mph , 26 km/h, Gust: 26 mph , 43 km/h
Temperature: 66°F , 19°C
Dew Point: 43°F , 6°C
Humidity: 43%
Barometer: 30.10 inHg , 1019.3 hPa
Clouds: Clear
Visibility: 10 miles , 16 km
2020/03/29 18:53 KSBA 291853Z 26014G23KT 10SM CLR 19/06 A3010 RMK AO2 SLP193 T01940061